| time (UTC) | temp C | wind direction | speed KPH | gust KPH | rain 1hr cm | rain 24hr cm | rain mn cm | humidity % | barometer mb |
| 20260506024629 | 23 | 166 | 3.2 | 4.8 | 0.00 | 0.00 | 0.00 | 34 | 1008.2 |
| 20260506024124 | 23 | 58 | 6.4 | 9.7 | 0.00 | 0.00 | 0.00 | 34 | 1008.6 |
| 20260506023621 | 23 | 157 | 3.2 | 3.2 | 0.00 | 0.00 | 0.00 | 33 | 1008.2 |
| 20260506023118 | 23 | 169 | 6.4 | 12.9 | 0.00 | 0.00 | 0.00 | 33 | 1008.5 |
| 20260506022616 | 24 | 49 | 3.2 | 4.8 | 0.00 | 0.00 | 0.00 | 33 | 1008.2 |
| 20260506022113 | 24 | 199 | 3.2 | 4.8 | 0.00 | 0.00 | 0.00 | 33 | 1008.2 |
| 20260506021611 | 24 | 9 | 8.0 | 11.3 | 0.00 | 0.00 | 0.00 | 32 | 1007.9 |
| 20260506021108 | 24 | 194 | 4.8 | 9.7 | 0.00 | 0.00 | 0.00 | 33 | 1008.0 |
| 20260506020605 | 25 | 253 | 6.4 | 6.4 | 0.00 | 0.00 | 0.00 | 32 | 1008.1 |
| 20260506015600 | 25 | 16 | 6.4 | 11.3 | 0.00 | 0.00 | 0.00 | 32 | 1008.4 |
| 20260506015056 | 25 | 227 | 3.2 | 3.2 | 0.00 | 0.00 | 0.00 | 33 | 1008.0 |
| 20260506014554 | 25 | 199 | 3.2 | 4.8 | 0.00 | 0.00 | 0.00 | 32 | 1008.0 |
| 20260506014049 | 25 | 240 | 8.0 | 9.7 | 0.00 | 0.00 | 0.00 | 32 | 1008.0 |
| 20260506013548 | 25 | 313 | 6.4 | 6.4 | 0.00 | 0.00 | 0.00 | 32 | 1007.9 |
| 20260506013044 | 26 | 177 | 3.2 | 4.8 | 0.00 | 0.00 | 0.00 | 31 | 1007.8 |
| 20260506012540 | 25 | 218 | 1.6 | 3.2 | 0.00 | 0.00 | 0.00 | 31 | 1008.0 |
| 20260506012037 | 26 | 213 | 6.4 | 6.4 | 0.00 | 0.00 | 0.00 | 30 | 1007.7 |
| 20260506011535 | 26 | 247 | 6.4 | 11.3 | 0.00 | 0.00 | 0.00 | 31 | 1007.8 |
| 20260506011031 | 26 | 65 | 3.2 | 3.2 | 0.00 | 0.00 | 0.00 | 30 | 1007.8 |
| 20260506010531 | 26 | 197 | 6.4 | 9.7 | 0.00 | 0.00 | 0.00 | 30 | 1007.8 |
| 20260506010027 | 26 | 265 | 4.8 | 4.8 | 0.00 | 0.00 | 0.00 | 30 | 1008.0 |
| 20260506005524 | 26 | 91 | 8.0 | 11.3 | 0.00 | 0.00 | 0.00 | 31 | 1007.8 |
| 20260506005019 | 26 | 328 | 4.8 | 4.8 | 0.00 | 0.00 | 0.00 | 31 | 1007.7 |
| 20260506004517 | 26 | 22 | 3.2 | 4.8 | 0.00 | 0.00 | 0.00 | 32 | 1007.7 |
| 20260506004014 | 26 | 347 | 6.4 | 11.3 | 0.00 | 0.00 | 0.00 | 30 | 1007.6 |
| 20260506003510 | 26 | 254 | 0.0 | 3.2 | 0.00 | 0.00 | 0.00 | 31 | 1007.6 |
| 20260506003006 | 26 | 194 | 3.2 | 3.2 | 0.00 | 0.00 | 0.00 | 30 | 1007.7 |
| 20260506002502 | 26 | 15 | 6.4 | 11.3 | 0.00 | 0.00 | 0.00 | 30 | 1007.9 |
| 20260506001958 | 26 | 61 | 8.0 | 11.3 | 0.00 | 0.00 | 0.00 | 30 | 1007.6 |
| 20260506001454 | 26 | 45 | 8.0 | 14.5 | 0.00 | 0.00 | 0.00 | 30 | 1007.6 |
| 20260506000952 | 26 | 294 | 8.0 | 11.3 | 0.00 | 0.00 | 0.00 | 31 | 1007.6 |
| 20260506000449 | 26 | 212 | 6.4 | 6.4 | 0.00 | 0.00 | 0.00 | 32 | 1007.7 |
| 20260505235946 | 26 | 47 | 9.7 | 11.3 | 0.00 | 0.00 | 0.00 | 32 | 1007.6 |
| 20260505235444 | 26 | 285 | 8.0 | 12.9 | 0.00 | 0.00 | 0.00 | 33 | 1007.5 |
| 20260505234941 | 26 | 308 | 9.7 | 14.5 | 0.00 | 0.00 | 0.00 | 32 | 1007.4 |
| 20260505234438 | 25 | 139 | 6.4 | 9.7 | 0.00 | 0.00 | 0.00 | 34 | 1007.6 |
| 20260505233935 | 25 | 302 | 9.7 | 12.9 | 0.00 | 0.00 | 0.00 | 33 | 1007.6 |
| 20260505233433 | 25 | 27 | 6.4 | 9.7 | 0.00 | 0.00 | 0.00 | 33 | 1007.8 |
| 20260505232930 | 25 | 258 | 9.7 | 12.9 | 0.00 | 0.00 | 0.00 | 33 | 1007.7 |
| 20260505232428 | 25 | 232 | 3.2 | 4.8 | 0.00 | 0.00 | 0.00 | 34 | 1007.6 |
| 20260505231924 | 25 | 295 | 9.7 | 12.9 | 0.00 | 0.00 | 0.00 | 34 | 1007.6 |
| 20260505231422 | 26 | 197 | 8.0 | 12.9 | 0.00 | 0.00 | 0.00 | 33 | 1007.8 |
| 20260505230920 | 25 | 195 | 4.8 | 4.8 | 0.00 | 0.00 | 0.00 | 34 | 1007.8 |
| 20260505230417 | 25 | 318 | 4.8 | 6.4 | 0.00 | 0.00 | 0.00 | 34 | 1007.8 |
| 20260505225914 | 25 | 354 | 8.0 | 11.3 | 0.00 | 0.00 | 0.00 | 34 | 1007.7 |
| 20260505225411 | 25 | 42 | 3.2 | 3.2 | 0.00 | 0.00 | 0.00 | 35 | 1007.5 |
| 20260505224906 | 26 | 231 | 8.0 | 9.7 | 0.00 | 0.00 | 0.00 | 34 | 1007.8 |
| 20260505224404 | 26 | 252 | 12.9 | 16.1 | 0.00 | 0.00 | 0.00 | 31 | 1007.5 |
| 20260505223900 | 26 | 292 | 6.4 | 6.4 | 0.00 | 0.00 | 0.00 | 31 | 1007.8 |
| 20260505223357 | 25 | 245 | 9.7 | 11.3 | 0.00 | 0.00 | 0.00 | 34 | 1007.7 |
| 20260505222853 | 25 | 219 | 6.4 | 9.7 | 0.00 | 0.00 | 0.00 | 34 | 1007.8 |
| 20260505222350 | 26 | 221 | 3.2 | 4.8 | 0.00 | 0.00 | 0.00 | 34 | 1007.9 |
| 20260505221847 | 26 | 355 | 14.5 | 14.5 | 0.00 | 0.00 | 0.00 | 31 | 1007.8 |
| 20260505221344 | 26 | 189 | 3.2 | 4.8 | 0.00 | 0.00 | 0.00 | 32 | 1007.8 |
| 20260505220840 | 26 | 341 | 6.4 | 12.9 | 0.00 | 0.00 | 0.00 | 32 | 1007.9 |
| 20260505220338 | 26 | 175 | 3.2 | 3.2 | 0.00 | 0.00 | 0.00 | 31 | 1007.9 |
| 20260505215835 | 26 | 249 | 6.4 | 9.7 | 0.00 | 0.00 | 0.00 | 32 | 1008.0 |
| 20260505215333 | 26 | 246 | 8.0 | 11.3 | 0.00 | 0.00 | 0.00 | 33 | 1007.9 |
| 20260505214831 | 25 | 260 | 12.9 | 16.1 | 0.00 | 0.00 | 0.00 | 33 | 1007.9 |
| 20260505214328 | 26 | 316 | 8.0 | 9.7 | 0.00 | 0.00 | 0.00 | 31 | 1007.8 |
| 20260505213825 | 26 | 192 | 3.2 | 4.8 | 0.00 | 0.00 | 0.00 | 32 | 1007.9 |
| 20260505213323 | 27 | 220 | 9.7 | 12.9 | 0.00 | 0.00 | 0.00 | 31 | 1008.1 |
| 20260505212819 | 26 | 338 | 12.9 | 14.5 | 0.00 | 0.00 | 0.00 | 31 | 1008.0 |
| 20260505212316 | 26 | 220 | 3.2 | 3.2 | 0.00 | 0.00 | 0.00 | 31 | 1007.8 |
| 20260505211812 | 25 | 293 | 16.1 | 20.9 | 0.00 | 0.00 | 0.00 | 34 | 1007.9 |
| 20260505211310 | 26 | 249 | 17.7 | 22.5 | 0.00 | 0.00 | 0.00 | 34 | 1008.1 |
| 20260505210806 | 26 | 304 | 9.7 | 11.3 | 0.00 | 0.00 | 0.00 | 34 | 1007.9 |
| 20260505210303 | 26 | 258 | 12.9 | 16.1 | 0.00 | 0.00 | 0.00 | 33 | 1007.9 |
| 20260505205800 | 26 | 277 | 14.5 | 14.5 | 0.00 | 0.00 | 0.00 | 34 | 1007.9 |
| 20260505205259 | 25 | 285 | 17.7 | 20.9 | 0.00 | 0.00 | 0.00 | 34 | 1007.8 |
| 20260505204754 | 25 | 252 | 16.1 | 17.7 | 0.00 | 0.00 | 0.00 | 35 | 1007.8 |
| 20260505204253 | 25 | 192 | 3.2 | 4.8 | 0.00 | 0.00 | 0.00 | 38 | 1007.6 |
| 20260505203749 | 25 | 241 | 6.4 | 6.4 | 0.00 | 0.00 | 0.00 | 38 | 1007.8 |
| 20260505203246 | 24 | 200 | 8.0 | 9.7 | 0.00 | 0.00 | 0.00 | 40 | 1007.9 |
| 20260505202742 | 24 | 265 | 14.5 | 20.9 | 0.00 | 0.00 | 0.00 | 39 | 1008.1 |
| 20260505202239 | 24 | 251 | 14.5 | 17.7 | 0.00 | 0.00 | 0.00 | 41 | 1008.1 |
| 20260505201735 | 25 | 275 | 9.7 | 12.9 | 0.00 | 0.00 | 0.00 | 41 | 1008.2 |
| 20260505201233 | 24 | 254 | 11.3 | 12.9 | 0.00 | 0.00 | 0.00 | 40 | 1008.1 |
| 20260505200731 | 24 | 277 | 8.0 | 11.3 | 0.00 | 0.00 | 0.00 | 41 | 1008.1 |
| 20260505200228 | 23 | 211 | 12.9 | 14.5 | 0.00 | 0.00 | 0.00 | 42 | 1008.2 |
| 20260505195723 | 24 | 268 | 14.5 | 16.1 | 0.00 | 0.00 | 0.00 | 42 | 1008.5 |
| 20260505195221 | 24 | 276 | 17.7 | 17.7 | 0.00 | 0.00 | 0.00 | 42 | 1008.6 |
| 20260505194718 | 23 | 249 | 11.3 | 17.7 | 0.00 | 0.00 | 0.00 | 41 | 1008.6 |
| 20260505194214 | 23 | 278 | 14.5 | 16.1 | 0.00 | 0.00 | 0.00 | 42 | 1008.5 |
| 20260505193710 | 23 | 267 | 9.7 | 11.3 | 0.00 | 0.00 | 0.00 | 43 | 1008.5 |
| 20260505193208 | 23 | 251 | 12.9 | 16.1 | 0.00 | 0.00 | 0.00 | 43 | 1008.6 |
| 20260505192707 | 22 | 258 | 9.7 | 12.9 | 0.00 | 0.00 | 0.00 | 44 | 1008.7 |
| 20260505192203 | 23 | 272 | 11.3 | 14.5 | 0.00 | 0.00 | 0.00 | 43 | 1008.8 |
| 20260505191702 | 23 | 266 | 11.3 | 12.9 | 0.00 | 0.00 | 0.00 | 43 | 1008.8 |
| 20260505191200 | 23 | 270 | 11.3 | 12.9 | 0.00 | 0.00 | 0.00 | 42 | 1008.8 |
| 20260505190656 | 22 | 208 | 1.6 | 1.6 | 0.00 | 0.00 | 0.00 | 43 | 1008.9 |
| 20260505190155 | 23 | 250 | 9.7 | 14.5 | 0.00 | 0.00 | 0.00 | 44 | 1008.9 |
| 20260505185652 | 22 | 220 | 4.8 | 6.4 | 0.00 | 0.00 | 0.00 | 44 | 1008.8 |
| 20260505185149 | 22 | 204 | 3.2 | 3.2 | 0.00 | 0.00 | 0.00 | 44 | 1009.0 |
| 20260505184645 | 22 | 248 | 6.4 | 9.7 | 0.00 | 0.00 | 0.00 | 45 | 1009.0 |
| 20260505184142 | 22 | 189 | 9.7 | 12.9 | 0.00 | 0.00 | 0.00 | 46 | 1009.0 |
| 20260505183639 | 21 | 267 | 9.7 | 11.3 | 0.00 | 0.00 | 0.00 | 45 | 1009.1 |
| 20260505183137 | 21 | 205 | 3.2 | 3.2 | 0.00 | 0.00 | 0.00 | 46 | 1009.0 |
| 20260505182633 | 21 | 284 | 6.4 | 6.4 | 0.00 | 0.00 | 0.00 | 46 | 1008.9 |
| 20260505182130 | 21 | 207 | 6.4 | 9.7 | 0.00 | 0.00 | 0.00 | 47 | 1009.1 |
| 20260505181626 | 21 | 196 | 8.0 | 11.3 | 0.00 | 0.00 | 0.00 | 47 | 1009.2 |
| 20260505181124 | 21 | 317 | 8.0 | 12.9 | 0.00 | 0.00 | 0.00 | 47 | 1009.2 |
| 20260505180620 | 21 | 297 | 8.0 | 9.7 | 0.00 | 0.00 | 0.00 | 48 | 1009.1 |
| 20260505180117 | 20 | 309 | 4.8 | 4.8 | 0.00 | 0.00 | 0.00 | 49 | 1009.1 |
| 20260505175613 | 20 | 205 | 1.6 | 3.2 | 0.00 | 0.00 | 0.00 | 49 | 1009.1 |
| 20260505175110 | 20 | 241 | 6.4 | 9.7 | 0.00 | 0.00 | 0.00 | 49 | 1009.3 |
| 20260505174606 | 20 | 202 | 4.8 | 6.4 | 0.00 | 0.00 | 0.00 | 49 | 1009.1 |
| 20260505174102 | 20 | 259 | 11.3 | 12.9 | 0.00 | 0.00 | 0.00 | 48 | 1009.3 |
| 20260505173559 | 20 | 249 | 3.2 | 4.8 | 0.00 | 0.00 | 0.00 | 49 | 1009.2 |
| 20260505173056 | 20 | 200 | 8.0 | 9.7 | 0.00 | 0.00 | 0.00 | 49 | 1009.6 |
| 20260505172554 | 19 | 206 | 1.6 | 1.6 | 0.00 | 0.00 | 0.00 | 51 | 1009.2 |
| 20260505172050 | 19 | 183 | 1.6 | 3.2 | 0.00 | 0.00 | 0.00 | 51 | 1009.4 |
| 20260505171545 | 18 | 242 | 4.8 | 6.4 | 0.00 | 0.00 | 0.00 | 52 | 1009.4 |
| 20260505171042 | 19 | 257 | 6.4 | 9.7 | 0.00 | 0.00 | 0.00 | 52 | 1009.2 |
| 20260505170539 | 18 | 232 | 3.2 | 3.2 | 0.00 | 0.00 | 0.00 | 53 | 1009.4 |
| 20260505170036 | 18 | 207 | 3.2 | 3.2 | 0.00 | 0.00 | 0.00 | 53 | 1009.6 |
| 20260505165531 | 18 | 208 | 3.2 | 3.2 | 0.00 | 0.00 | 0.00 | 54 | 1009.3 |
| 20260505165026 | 17 | 272 | 6.4 | 6.4 | 0.00 | 0.00 | 0.00 | 54 | 1009.6 |
| 20260505164523 | 17 | 241 | 4.8 | 4.8 | 0.00 | 0.00 | 0.00 | 55 | 1009.6 |
| 20260505164021 | 17 | 215 | 3.2 | 4.8 | 0.00 | 0.00 | 0.00 | 56 | 1009.4 |
| 20260505163519 | 17 | 194 | 1.6 | 1.6 | 0.00 | 0.00 | 0.00 | 55 | 1009.6 |
| 20260505163016 | 16 | 197 | 1.6 | 3.2 | 0.00 | 0.00 | 0.00 | 56 | 1009.4 |
| 20260505162509 | 16 | 210 | 3.2 | 3.2 | 0.00 | 0.00 | 0.00 | 57 | 1009.7 |
| 20260505162006 | 17 | 189 | 0.0 | 1.6 | 0.00 | 0.00 | 0.00 | 55 | 1009.7 |
| 20260505161502 | 17 | 183 | 0.0 | 1.6 | 0.00 | 0.00 | 0.00 | 55 | 1009.8 |
| 20260505160959 | 16 | 190 | 0.0 | 1.6 | 0.00 | 0.00 | 0.00 | 54 | 1009.7 |
| 20260505160458 | 15 | 54 | 4.8 | 4.8 | 0.00 | 0.00 | 0.00 | 58 | 1009.7 |
| 20260505152934 | 13 | 188 | 0.0 | 0.0 | 0.00 | 0.00 | 0.00 | 61 | 1009.7 |
| 20260505152432 | 12 | 188 | 1.6 | 1.6 | 0.00 | 0.00 | 0.00 | 63 | 1009.8 |
| 20260505151932 | 13 | 200 | 4.8 | 4.8 | 0.00 | 0.00 | 0.00 | 61 | 1009.7 |
| 20260505151427 | 13 | 177 | 1.6 | 1.6 | 0.00 | 0.00 | 0.00 | 62 | 1009.8 |
| 20260505150925 | 13 | 168 | 3.2 | 3.2 | 0.00 | 0.00 | 0.00 | 61 | 1009.7 |
| 20260505150422 | 12 | 175 | 1.6 | 3.2 | 0.00 | 0.00 | 0.00 | 61 | 1009.8 |
| 20260505140352 | 8 | 161 | 1.6 | 3.2 | 0.00 | 0.00 | 0.00 | 71 | 1009.3 |
| 20260505124805 | 6 | 174 | 1.6 | 3.2 | 0.00 | 0.00 | 0.00 | 76 | 1008.6 |
| 20260505124302 | 6 | 171 | 1.6 | 3.2 | 0.00 | 0.00 | 0.00 | 76 | 1008.7 |
| 20260505123758 | 6 | 173 | 1.6 | 3.2 | 0.00 | 0.00 | 0.00 | 77 | 1008.7 |
| 20260505123255 | 6 | 177 | 1.6 | 3.2 | 0.00 | 0.00 | 0.00 | 77 | 1008.7 |
| 20260505122751 | 6 | 182 | 0.0 | 0.0 | 0.00 | 0.00 | 0.00 | 76 | 1008.6 |
| 20260505122249 | 7 | 180 | 1.6 | 1.6 | 0.00 | 0.00 | 0.00 | 75 | 1008.6 |
| 20260505121745 | 7 | 177 | 1.6 | 1.6 | 0.00 | 0.00 | 0.00 | 74 | 1008.5 |
| 20260505121242 | 7 | 144 | 3.2 | 4.8 | 0.00 | 0.00 | 0.00 | 73 | 1008.6 |
| 20260505120738 | 7 | 173 | 1.6 | 3.2 | 0.00 | 0.00 | 0.00 | 73 | 1008.4 |
| 20260505120234 | 7 | 179 | 0.0 | 1.6 | 0.00 | 0.00 | 0.00 | 73 | 1008.4 |
| 20260505115733 | 7 | 183 | 0.0 | 0.0 | 0.00 | 0.00 | 0.00 | 73 | 1008.5 |
| 20260505115231 | 7 | 172 | 3.2 | 3.2 | 0.00 | 0.00 | 0.00 | 72 | 1008.2 |
| 20260505114728 | 7 | 175 | 3.2 | 3.2 | 0.00 | 0.00 | 0.00 | 72 | 1008.5 |
| 20260505114224 | 7 | 182 | 1.6 | 3.2 | 0.00 | 0.00 | 0.00 | 72 | 1008.2 |
| 20260505113720 | 7 | 161 | 3.2 | 4.8 | 0.00 | 0.00 | 0.00 | 72 | 1008.0 |
| 20260505113217 | 7 | 177 | 1.6 | 1.6 | 0.00 | 0.00 | 0.00 | 72 | 1008.4 |
| 20260505112714 | 7 | 180 | 1.6 | 1.6 | 0.00 | 0.00 | 0.00 | 71 | 1008.2 |
| 20260505112212 | 7 | 166 | 1.6 | 1.6 | 0.00 | 0.00 | 0.00 | 71 | 1008.0 |
| 20260505111711 | 7 | 178 | 3.2 | 3.2 | 0.00 | 0.00 | 0.00 | 72 | 1008.0 |
| 20260505111207 | 7 | 166 | 1.6 | 1.6 | 0.00 | 0.00 | 0.00 | 72 | 1008.1 |
| 20260505110703 | 7 | 182 | 3.2 | 3.2 | 0.00 | 0.00 | 0.00 | 72 | 1008.0 |
| 20260505110201 | 7 | 176 | 3.2 | 3.2 | 0.00 | 0.00 | 0.00 | 72 | 1008.1 |
| 20260505102137 | 8 | 173 | 1.6 | 1.6 | 0.00 | 0.00 | 0.00 | 69 | 1007.8 |
| 20260505101635 | 8 | 184 | 0.0 | 0.0 | 0.00 | 0.00 | 0.00 | 69 | 1007.6 |
| 20260505101131 | 8 | 180 | 1.6 | 1.6 | 0.00 | 0.00 | 0.00 | 69 | 1007.8 |
| 20260505100627 | 8 | 174 | 1.6 | 3.2 | 0.00 | 0.00 | 0.00 | 69 | 1007.9 |
| 20260505100124 | 8 | 170 | 3.2 | 3.2 | 0.00 | 0.00 | 0.00 | 68 | 1008.0 |
| 20260505095620 | 8 | 167 | 4.8 | 4.8 | 0.00 | 0.00 | 0.00 | 66 | 1007.9 |
| 20260505095117 | 8 | 166 | 1.6 | 3.2 | 0.00 | 0.00 | 0.00 | 65 | 1007.8 |
| 20260505094614 | 8 | 169 | 3.2 | 3.2 | 0.00 | 0.00 | 0.00 | 65 | 1007.6 |
| 20260505094110 | 8 | 175 | 3.2 | 3.2 | 0.00 | 0.00 | 0.00 | 64 | 1007.7 |
| 20260505093606 | 9 | 176 | 1.6 | 1.6 | 0.00 | 0.00 | 0.00 | 64 | 1007.8 |
| 20260505093104 | 9 | 174 | 1.6 | 1.6 | 0.00 | 0.00 | 0.00 | 63 | 1007.8 |
| 20260505092601 | 9 | 165 | 3.2 | 3.2 | 0.00 | 0.00 | 0.00 | 63 | 1007.7 |
| 20260505092100 | 10 | 164 | 3.2 | 3.2 | 0.00 | 0.00 | 0.00 | 64 | 1007.7 |
| 20260505091556 | 9 | 178 | 1.6 | 1.6 | 0.00 | 0.00 | 0.00 | 64 | 1007.6 |
| 20260505091054 | 10 | 171 | 1.6 | 1.6 | 0.00 | 0.00 | 0.00 | 63 | 1007.6 |
| 20260505090552 | 10 | 171 | 1.6 | 1.6 | 0.00 | 0.00 | 0.00 | 64 | 1007.6 |
| 20260505090050 | 10 | 171 | 1.6 | 3.2 | 0.00 | 0.00 | 0.00 | 63 | 1007.7 |
| 20260505085547 | 10 | 175 | 1.6 | 1.6 | 0.00 | 0.00 | 0.00 | 61 | 1007.7 |
| 20260505085045 | 10 | 179 | 1.6 | 1.6 | 0.00 | 0.00 | 0.00 | 61 | 1007.8 |
| 20260505084543 | 10 | 173 | 1.6 | 1.6 | 0.00 | 0.00 | 0.00 | 60 | 1007.7 |
| 20260505084041 | 10 | 178 | 0.0 | 0.0 | 0.00 | 0.00 | 0.00 | 59 | 1007.8 |
| 20260505083537 | 10 | 194 | 0.0 | 1.6 | 0.00 | 0.00 | 0.00 | 59 | 1007.9 |
| 20260505083034 | 11 | 186 | 0.0 | 0.0 | 0.00 | 0.00 | 0.00 | 58 | 1007.7 |
| 20260505082530 | 10 | 154 | 1.6 | 1.6 | 0.00 | 0.00 | 0.00 | 59 | 1007.6 |
| 20260505082027 | 10 | 187 | 0.0 | 0.0 | 0.00 | 0.00 | 0.00 | 57 | 1007.7 |
| 20260505081523 | 11 | 213 | 1.6 | 3.2 | 0.00 | 0.00 | 0.00 | 56 | 1007.6 |
| 20260505081021 | 11 | 180 | 1.6 | 1.6 | 0.00 | 0.00 | 0.00 | 55 | 1007.6 |
| 20260505080517 | 11 | 179 | 1.6 | 1.6 | 0.00 | 0.00 | 0.00 | 56 | 1007.7 |
| 20260505080014 | 11 | 171 | 3.2 | 3.2 | 0.00 | 0.00 | 0.00 | 56 | 1007.6 |
| 20260505075509 | 11 | 171 | 0.0 | 0.0 | 0.00 | 0.00 | 0.00 | 55 | 1007.6 |
| 20260505075006 | 11 | 171 | 1.6 | 1.6 | 0.00 | 0.00 | 0.00 | 54 | 1007.4 |
| 20260505074504 | 11 | 171 | 1.6 | 1.6 | 0.00 | 0.00 | 0.00 | 54 | 1007.4 |
| 20260505074001 | 12 | 168 | 3.2 | 3.2 | 0.00 | 0.00 | 0.00 | 54 | 1007.5 |
| 20260505073458 | 12 | 176 | 0.0 | 1.6 | 0.00 | 0.00 | 0.00 | 54 | 1007.5 |
| 20260505072955 | 12 | 180 | 0.0 | 0.0 | 0.00 | 0.00 | 0.00 | 54 | 1007.4 |
| 20260505072451 | 12 | 180 | 0.0 | 0.0 | 0.00 | 0.00 | 0.00 | 53 | 1007.5 |
| 20260505071948 | 12 | 180 | 0.0 | 1.6 | 0.00 | 0.00 | 0.00 | 53 | 1007.5 |
| 20260505071444 | 12 | 194 | 0.0 | 0.0 | 0.00 | 0.00 | 0.00 | 52 | 1007.5 |
| 20260505070942 | 13 | 194 | 0.0 | 0.0 | 0.00 | 0.00 | 0.00 | 51 | 1007.7 |
| 20260505070438 | 13 | 176 | 0.0 | 1.6 | 0.00 | 0.00 | 0.00 | 50 | 1007.4 |
| 20260505065934 | 13 | 177 | 1.6 | 1.6 | 0.00 | 0.00 | 0.00 | 49 | 1007.7 |
| 20260505065431 | 14 | 178 | 1.6 | 1.6 | 0.00 | 0.00 | 0.00 | 48 | 1007.6 |
| 20260505064928 | 14 | 178 | 0.0 | 0.0 | 0.00 | 0.00 | 0.00 | 47 | 1007.3 |
| 20260505064425 | 15 | 170 | 1.6 | 3.2 | 0.00 | 0.00 | 0.00 | 46 | 1007.4 |
| 20260505063923 | 15 | 173 | 1.6 | 1.6 | 0.00 | 0.00 | 0.00 | 46 | 1007.1 |
| 20260505063419 | 16 | 186 | 0.0 | 0.0 | 0.00 | 0.00 | 0.00 | 44 | 1007.2 |
| 20260505062916 | 16 | 201 | 0.0 | 1.6 | 0.00 | 0.00 | 0.00 | 43 | 1007.2 |
| 20260505062413 | 16 | 14 | 6.4 | 6.4 | 0.00 | 0.00 | 0.00 | 43 | 1006.9 |
| 20260505061909 | 16 | 205 | 3.2 | 3.2 | 0.00 | 0.00 | 0.00 | 42 | 1007.1 |
| 20260505061408 | 16 | 200 | 1.6 | 1.6 | 0.00 | 0.00 | 0.00 | 42 | 1006.9 |
| 20260505060905 | 16 | 205 | 1.6 | 3.2 | 0.00 | 0.00 | 0.00 | 41 | 1007.2 |
| 20260505060402 | 17 | 201 | 1.6 | 1.6 | 0.00 | 0.00 | 0.00 | 40 | 1007.2 |
| 20260505055858 | 17 | 206 | 4.8 | 4.8 | 0.00 | 0.00 | 0.00 | 40 | 1006.9 |
| 20260505055354 | 17 | 199 | 1.6 | 3.2 | 0.00 | 0.00 | 0.00 | 40 | 1007.1 |
| 20260505054851 | 17 | 200 | 3.2 | 4.8 | 0.00 | 0.00 | 0.00 | 40 | 1007.1 |
| 20260505054348 | 17 | 243 | 4.8 | 4.8 | 0.00 | 0.00 | 0.00 | 40 | 1007.1 |
| 20260505053847 | 16 | 216 | 6.4 | 6.4 | 0.00 | 0.00 | 0.00 | 42 | 1006.9 |
| 20260505053343 | 16 | 224 | 4.8 | 4.8 | 0.00 | 0.00 | 0.00 | 42 | 1006.9 |
| 20260505052840 | 17 | 205 | 3.2 | 3.2 | 0.00 | 0.00 | 0.00 | 42 | 1006.9 |
| 20260505052337 | 17 | 209 | 3.2 | 3.2 | 0.00 | 0.00 | 0.00 | 42 | 1006.9 |
| 20260505051834 | 17 | 194 | 0.0 | 0.0 | 0.00 | 0.00 | 0.00 | 42 | 1006.9 |
| 20260505051331 | 17 | 199 | 3.2 | 3.2 | 0.00 | 0.00 | 0.00 | 43 | 1006.8 |
| 20260505050829 | 17 | 185 | 1.6 | 1.6 | 0.00 | 0.00 | 0.00 | 42 | 1006.9 |
| 20260505050328 | 17 | 200 | 3.2 | 3.2 | 0.00 | 0.00 | 0.00 | 42 | 1006.8 |
| 20260505041757 | 18 | 202 | 6.4 | 9.7 | 0.00 | 0.00 | 0.00 | 40 | 1006.1 |
| 20260505041255 | 18 | 287 | 9.7 | 11.3 | 0.00 | 0.00 | 0.00 | 40 | 1005.9 |
| 20260505040752 | 18 | 240 | 8.0 | 11.3 | 0.00 | 0.00 | 0.00 | 40 | 1005.9 |
| 20260505040249 | 18 | 198 | 6.4 | 9.7 | 0.00 | 0.00 | 0.00 | 39 | 1006.0 |
| 20260505035746 | 18 | 240 | 4.8 | 6.4 | 0.00 | 0.00 | 0.00 | 39 | 1005.9 |
| 20260505035242 | 19 | 202 | 4.8 | 6.4 | 0.00 | 0.00 | 0.00 | 38 | 1005.5 |
| 20260505034739 | 19 | 214 | 1.6 | 3.2 | 0.00 | 0.00 | 0.00 | 38 | 1005.9 |
| 20260505034236 | 20 | 321 | 6.4 | 9.7 | 0.00 | 0.00 | 0.00 | 38 | 1005.5 |
| 20260505033733 | 20 | 301 | 8.0 | 11.3 | 0.00 | 0.00 | 0.00 | 37 | 1005.7 |
| 20260505033230 | 20 | 231 | 4.8 | 6.4 | 0.00 | 0.00 | 0.00 | 37 | 1005.4 |
| 20260505032728 | 20 | 317 | 6.4 | 6.4 | 0.00 | 0.00 | 0.00 | 36 | 1005.4 |
| 20260505032224 | 20 | 333 | 9.7 | 12.9 | 0.00 | 0.00 | 0.00 | 36 | 1005.2 |
| 20260505031721 | 20 | 215 | 11.3 | 14.5 | 0.00 | 0.00 | 0.00 | 36 | 1005.1 |
| 20260505031218 | 21 | 189 | 9.7 | 12.9 | 0.00 | 0.00 | 0.00 | 36 | 1004.8 |
| 20260505030715 | 21 | 269 | 8.0 | 14.5 | 0.00 | 0.00 | 0.00 | 36 | 1004.8 |
| 20260505030211 | 21 | 246 | 12.9 | 17.7 | 0.00 | 0.00 | 0.00 | 35 | 1004.9 |
| 20260505025707 | 21 | 280 | 8.0 | 9.7 | 0.00 | 0.00 | 0.00 | 34 | 1004.7 |
| 20260505025205 | 22 | 330 | 16.1 | 20.9 | 0.00 | 0.00 | 0.00 | 33 | 1004.5 |